Terminal Aerodrome Forecast
Issued by NWS

Home | Current Version | Previous Version | Text Only | Print | Product List | Glossary On
Versions: 1 2 3 4 5 6 7 8 9 10 11 12 13 14 15 16 17 18 19 20 21 22 23 24 25 26 27 28 29 30
000
FTUS43 KFGF 162340
TAFBJI
TAF
KBJI 162340Z 1700/1724 13005KT P6SM VCSH BKN035
     FM170600 VRB03KT P6SM OVC015
     FM171100 00000KT P6SM BKN005
     FM171700 27006KT P6SM BKN011
     FM172100 30005KT P6SM BKN020=

USA.gov is the U.S. government's official web portal to all federal, state and local government web resources and services.